Terminal Aerodrome Forecast
Issued by NWS

Home | Current Version | Previous Version | Text Only | Print | Product List | Glossary On
Versions: 1 2 3 4 5 6 7 8 9 10 11 12 13 14 15 16 17 18 19 20 21
853
FTUS43 KEAX 252325
TAFSTJ
TAF
KSTJ 252325Z 2600/2624 15011KT P6SM FEW100
     FM260700 15008KT P6SM VCSH BKN050
     FM260900 15006KT P6SM FEW100
     FM261400 27006KT P6SM BKN060
     FM261700 32009KT P6SM BKN035=

USA.gov is the U.S. government's official web portal to all federal, state and local government web resources and services.